RoSS Salvaggio — WDC2805 — position and weather

sailwx.info

Track history (hours):
 
Tides and Currents Weather Stations Pressure Air Temp Water Temp Dewpoint Dewpoint Depression Visibility Wind Speed Wind Dir Waves Ship Positions

RoSS Salvaggio

Owner: Marquette Transportation Company Gulf-Inland, LLC, Jefferson, LA. More information available from US FCC via Universal Licensing System and Coast Guard Vessel Documentation Center.

Last reported at 2018-Feb-08 00:53 UTC. Time now 2018-Feb-20 23:14 UTC.
Position N 29°47' W 095°04'.
Warning: this ship's position is 12 days out of date.

Length 22 m; draft 3 m.

Type: . MMSI: 366997940.

Date/timePositionNaut miles runAvg speedWind from/ knotsBaromVisibWave heightAir tempDewpointWater temp
2018-Feb-08 00:53N 29°47' W 095°04'0 0.0
2018-Feb-07 23:03N 29°47' W 095°04'0 0.0
2018-Feb-07 22:56N 29°47' W 095°04'1 2.7
2018-Feb-07 22:27N 29°46' W 095°05'1 1.7
2018-Feb-07 21:46N 29°46' W 095°06'0 1.4
2018-Feb-07 21:29N 29°46' W 095°05'21 0.4
2018-Feb-05 21:12N 29°29' W 094°51'2 8.8
2018-Feb-05 21:00N 29°30' W 094°52'13 8.8
2018-Feb-05 19:28N 29°42' W 094°60'  
2018-Feb-01 05:31N 29°46' W 095°06'0 0.0
2018-Feb-01 05:01N 29°46' W 095°06'1 3.4
2018-Feb-01 04:48N 29°46' W 095°05'3 0.8
2018-Feb-01 00:59N 29°44' W 095°02'3 6.0
2018-Feb-01 00:30N 29°42' W 094°60'4 7.2
2018-Feb-01 00:00N 29°39' W 094°58'7 7.2
2018-Jan-31 23:00N 29°33' W 094°54'4 7.8
2018-Jan-31 22:30N 29°29' W 094°52'45 3.7
2018-Jan-31 10:15N 28°54' W 095°24'1 2.1
2018-Jan-31 09:57N 28°53' W 095°25'65 5.0
2018-Jan-30 20:56N 28°24' W 096°31'3 6.6
2018-Jan-30 20:29N 28°22' W 096°34'3 6.6
2018-Jan-30 20:00N 28°21' W 096°37'3 6.8
2018-Jan-30 19:30N 28°19' W 096°40'4 6.6
2018-Jan-30 18:58N 28°17' W 096°44'3 6.6
2018-Jan-30 18:29N 28°15' W 096°46'4 6.1
2018-Jan-30 17:51N 28°12' W 096°50'2 5.6
2018-Jan-30 17:25N 28°11' W 096°52'2 5.5
2018-Jan-30 17:00N 28°09' W 096°54'3 5.3
2018-Jan-30 16:30N 28°07' W 096°56'3 6.1
2018-Jan-30 16:00N 28°05' W 096°58'4 6.5
2018-Jan-30 15:27N 28°02' W 097°00'3 6.5
2018-Jan-30 14:59N 27°59' W 097°02'3 5.9
2018-Jan-30 14:30N 27°57' W 097°04'5 5.0
2018-Jan-30 13:29N 27°52' W 097°03'3 6.5
2018-Jan-30 12:57N 27°50' W 097°07'4 8.4
2018-Jan-30 12:27N 27°49' W 097°11'4 7.6
2018-Jan-30 11:59N 27°49' W 097°15'10 6.4
2018-Jan-30 10:29N 27°49' W 097°26'3 0.3
2018-Jan-30 01:15N 27°49' W 097°29'0 0.0
2018-Jan-29 16:26N 27°49' W 097°29'0 0.0
2018-Jan-29 15:20N 27°49' W 097°29'0 0.0
2018-Jan-29 14:59N 27°49' W 097°29'0 0.1
2018-Jan-29 13:32N 27°49' W 097°29'0 2.8
2018-Jan-29 13:30N 27°50' W 097°29'0 0.7
2018-Jan-29 12:59N 27°50' W 097°30'0 0.1
2018-Jan-29 12:17N 27°50' W 097°30'0 0.2
2018-Jan-29 11:27N 27°50' W 097°30'0 0.3
2018-Jan-29 10:58N 27°50' W 097°30'0 0.0
2018-Jan-29 10:28N 27°50' W 097°30'0 0.0
2018-Jan-29 10:01N 27°50' W 097°30'0 0.0
2018-Jan-29 09:16N 27°50' W 097°30'0 0.0
2018-Jan-29 09:00N 27°50' W 097°30'0 0.0
2018-Jan-29 08:30N 27°50' W 097°30'0 0.0
2018-Jan-29 07:42N 27°50' W 097°30'0 0.0
2018-Jan-29 05:51N 27°50' W 097°30'  
Track history (hours):
 
Tides and Currents Weather Stations Pressure Air Temp Water Temp Dewpoint Dewpoint Depression Visibility Wind Speed Wind Dir Waves Ship Positions

RoSS Salvaggio

Owner: Marquette Transportation Company Gulf-Inland, LLC, Jefferson, LA. More information available from US FCC via Universal Licensing System and Coast Guard Vessel Documentation Center.

Last reported at 2018-Feb-08 00:53 UTC. Time now 2018-Feb-20 23:14 UTC.
Position N 29°47' W 095°04'.
Warning: this ship's position is 12 days out of date.

Length 22 m; draft 3 m.

Type: . MMSI: 366997940.

Date/timePositionNaut miles runAvg speedWind from/ knotsBaromVisibWave heightAir tempDewpointWater temp
2018-Feb-08 00:53N 29°47' W 095°04'0 0.0
2018-Feb-07 23:03N 29°47' W 095°04'0 0.0
2018-Feb-07 22:56N 29°47' W 095°04'1 2.7
2018-Feb-07 22:27N 29°46' W 095°05'1 1.7
2018-Feb-07 21:46N 29°46' W 095°06'0 1.4
2018-Feb-07 21:29N 29°46' W 095°05'21 0.4
2018-Feb-05 21:12N 29°29' W 094°51'2 8.8
2018-Feb-05 21:00N 29°30' W 094°52'13 8.8
2018-Feb-05 19:28N 29°42' W 094°60'  
2018-Feb-01 05:31N 29°46' W 095°06'0 0.0
2018-Feb-01 05:01N 29°46' W 095°06'1 3.4
2018-Feb-01 04:48N 29°46' W 095°05'3 0.8
2018-Feb-01 00:59N 29°44' W 095°02'3 6.0
2018-Feb-01 00:30N 29°42' W 094°60'4 7.2
2018-Feb-01 00:00N 29°39' W 094°58'7 7.2
2018-Jan-31 23:00N 29°33' W 094°54'4 7.8
2018-Jan-31 22:30N 29°29' W 094°52'45 3.7
2018-Jan-31 10:15N 28°54' W 095°24'1 2.1
2018-Jan-31 09:57N 28°53' W 095°25'65 5.0
2018-Jan-30 20:56N 28°24' W 096°31'3 6.6
2018-Jan-30 20:29N 28°22' W 096°34'3 6.6
2018-Jan-30 20:00N 28°21' W 096°37'3 6.8
2018-Jan-30 19:30N 28°19' W 096°40'4 6.6
2018-Jan-30 18:58N 28°17' W 096°44'3 6.6
2018-Jan-30 18:29N 28°15' W 096°46'4 6.1
2018-Jan-30 17:51N 28°12' W 096°50'2 5.6
2018-Jan-30 17:25N 28°11' W 096°52'2 5.5
2018-Jan-30 17:00N 28°09' W 096°54'3 5.3
2018-Jan-30 16:30N 28°07' W 096°56'3 6.1
2018-Jan-30 16:00N 28°05' W 096°58'4 6.5
2018-Jan-30 15:27N 28°02' W 097°00'3 6.5
2018-Jan-30 14:59N 27°59' W 097°02'3 5.9
2018-Jan-30 14:30N 27°57' W 097°04'5 5.0
2018-Jan-30 13:29N 27°52' W 097°03'3 6.5
2018-Jan-30 12:57N 27°50' W 097°07'4 8.4
2018-Jan-30 12:27N 27°49' W 097°11'4 7.6
2018-Jan-30 11:59N 27°49' W 097°15'10 6.4
2018-Jan-30 10:29N 27°49' W 097°26'3 0.3
2018-Jan-30 01:15N 27°49' W 097°29'0 0.0
2018-Jan-29 16:26N 27°49' W 097°29'0 0.0
2018-Jan-29 15:20N 27°49' W 097°29'0 0.0
2018-Jan-29 14:59N 27°49' W 097°29'0 0.1
2018-Jan-29 13:32N 27°49' W 097°29'0 2.8
2018-Jan-29 13:30N 27°50' W 097°29'0 0.7
2018-Jan-29 12:59N 27°50' W 097°30'0 0.1
2018-Jan-29 12:17N 27°50' W 097°30'0 0.2
2018-Jan-29 11:27N 27°50' W 097°30'0 0.3
2018-Jan-29 10:58N 27°50' W 097°30'0 0.0
2018-Jan-29 10:28N 27°50' W 097°30'0 0.0
2018-Jan-29 10:01N 27°50' W 097°30'0 0.0
2018-Jan-29 09:16N 27°50' W 097°30'0 0.0
2018-Jan-29 09:00N 27°50' W 097°30'0 0.0
2018-Jan-29 08:30N 27°50' W 097°30'0 0.0
2018-Jan-29 07:42N 27°50' W 097°30'0 0.0
2018-Jan-29 05:51N 27°50' W 097°30'  

Dump ship's entire track history